createdAt,value
2019-06-26T00:01:04.104Z,7.30
2019-06-26T00:03:32.198Z,7.57
2019-06-26T00:06:00.255Z,7.03
2019-06-26T00:08:28.322Z,7.50
2019-06-26T00:10:56.381Z,6.57
2019-06-26T00:13:26.847Z,7.00
2019-06-26T00:15:54.156Z,6.70
2019-06-26T00:18:22.976Z,6.97
2019-06-26T00:20:51.020Z,6.82
2019-06-26T00:23:19.918Z,6.60
2019-06-26T00:25:47.986Z,6.93
2019-06-26T00:28:16.835Z,7.23
2019-06-26T00:30:45.584Z,6.80
2019-06-26T00:33:14.455Z,7.22
2019-06-26T00:35:43.329Z,7.55
2019-06-26T00:38:12.130Z,7.68
2019-06-26T00:40:40.189Z,7.78
2019-06-26T00:43:09.021Z,8.00
2019-06-26T00:45:37.051Z,7.80
2019-06-26T00:48:05.841Z,8.43
2019-06-26T00:50:33.867Z,8.10
2019-06-26T00:53:03.447Z,8.35
2019-06-26T00:55:31.463Z,8.63
2019-06-26T00:58:00.303Z,8.70
2019-06-26T01:00:29.301Z,8.93
2019-06-26T01:02:57.345Z,8.50
2019-06-26T01:05:25.370Z,8.40
2019-06-26T01:07:53.508Z,8.27
2019-06-26T01:10:21.518Z,8.10
2019-06-26T01:12:49.572Z,8.38
2019-06-26T01:15:17.606Z,8.48
2019-06-26T01:17:45.664Z,8.40
2019-06-26T01:20:13.950Z,7.60
2019-06-26T01:22:42.006Z,8.35
2019-06-26T01:25:10.066Z,7.78
2019-06-26T01:27:38.965Z,8.52
2019-06-26T01:30:07.031Z,9.00
2019-06-26T01:32:35.833Z,9.13
2019-06-26T01:35:05.635Z,8.73
2019-06-26T01:37:33.662Z,8.60
2019-06-26T01:40:03.210Z,8.77
2019-06-26T01:42:31.275Z,8.80
2019-06-26T01:44:59.354Z,9.02
2019-06-26T01:47:27.442Z,8.45
2019-06-26T01:49:55.507Z,8.95
2019-06-26T01:52:23.536Z,9.30
2019-06-26T01:54:52.355Z,8.85
2019-06-26T01:57:20.425Z,8.73
2019-06-26T01:59:48.458Z,8.70
2019-06-26T02:02:16.564Z,8.93
2019-06-26T02:04:44.568Z,8.70
2019-06-26T02:07:12.706Z,8.93
2019-06-26T02:09:40.828Z,8.25
2019-06-26T02:12:09.587Z,8.60
2019-06-26T02:14:37.724Z,8.93
2019-06-26T02:17:06.539Z,9.18
2019-06-26T02:19:34.615Z,9.02
2019-06-26T02:22:02.657Z,9.20
2019-06-26T02:24:30.742Z,8.95
2019-06-26T02:26:58.796Z,9.25
2019-06-26T02:29:26.868Z,9.60
2019-06-26T02:31:54.941Z,10.02
2019-06-26T02:34:22.996Z,9.70
2019-06-26T02:36:51.795Z,10.40
2019-06-26T02:39:19.801Z,10.27
2019-06-26T02:41:47.857Z,9.85
2019-06-26T02:44:15.943Z,10.35
2019-06-26T02:46:44.111Z,10.20
2019-06-26T02:49:12.159Z,10.75
2019-06-26T02:51:40.271Z,10.15
2019-06-26T02:54:08.310Z,10.57
2019-06-26T02:56:36.356Z,10.15
2019-06-26T02:59:04.406Z,10.77
2019-06-26T03:01:33.263Z,10.50
2019-06-26T03:04:01.293Z,10.25
2019-06-26T03:06:29.371Z,10.70
2019-06-26T03:08:58.176Z,10.47
2019-06-26T03:11:27.021Z,10.32
2019-06-26T03:13:55.038Z,10.23
2019-06-26T03:16:23.185Z,10.30
2019-06-26T03:18:51.262Z,10.35
2019-06-26T03:21:19.305Z,10.20
2019-06-26T03:23:47.317Z,11.03
2019-06-26T03:26:15.474Z,10.77
2019-06-26T03:28:43.550Z,10.40
2019-06-26T03:31:11.602Z,10.25
2019-06-26T03:33:39.617Z,10.20
2019-06-26T03:36:07.669Z,10.27
2019-06-26T03:38:35.709Z,9.88
2019-06-26T03:41:03.798Z,10.52
2019-06-26T03:43:35.428Z,9.67
2019-06-26T03:46:00.602Z,9.83
2019-06-26T03:48:28.722Z,9.88
2019-06-26T03:50:56.785Z,9.43
2019-06-26T03:53:24.828Z,9.48
2019-06-26T03:55:53.643Z,9.20
2019-06-26T03:58:21.741Z,10.00
2019-06-26T04:00:49.878Z,9.30
2019-06-26T04:03:17.921Z,10.00
2019-06-26T04:05:46.793Z,9.83
2019-06-26T04:08:14.825Z,9.80
2019-06-26T04:10:43.589Z,10.32
2019-06-26T04:13:11.012Z,9.93
2019-06-26T04:15:42.495Z,9.80
2019-06-26T04:18:07.246Z,10.25
2019-06-26T04:20:35.365Z,9.85
2019-06-26T04:23:03.443Z,9.90
2019-06-26T04:25:32.831Z,10.07
2019-06-26T04:28:01.797Z,9.70
2019-06-26T04:30:29.717Z,10.45
2019-06-26T04:32:58.625Z,9.70
2019-06-26T04:35:26.711Z,10.10
2019-06-26T04:37:54.834Z,9.77
2019-06-26T04:40:22.900Z,9.85
2019-06-26T04:42:51.763Z,9.75
2019-06-26T04:45:19.806Z,9.95
2019-06-26T04:47:47.895Z,9.82
2019-06-26T04:50:15.957Z,9.50
2019-06-26T04:52:44.100Z,9.27
2019-06-26T04:55:12.872Z,9.37
2019-06-26T04:57:41.749Z,9.43
2019-06-26T05:00:09.756Z,9.20
2019-06-26T05:02:37.907Z,9.40
2019-06-26T05:05:05.943Z,9.70
2019-06-26T05:07:34.753Z,10.25
2019-06-26T05:10:02.822Z,9.85
2019-06-26T05:12:30.864Z,9.93
2019-06-26T05:14:58.984Z,9.43
2019-06-26T05:17:27.129Z,9.80
2019-06-26T05:19:55.173Z,9.38
2019-06-26T05:22:23.309Z,9.88
2019-06-26T05:24:51.344Z,14.10
2019-06-26T05:27:19.525Z,8.77
2019-06-26T05:29:47.597Z,8.27
2019-06-26T05:32:15.632Z,8.30
2019-06-26T05:34:43.664Z,8.48
2019-06-26T05:37:11.728Z,8.32
2019-06-26T05:39:39.744Z,8.50
2019-06-26T05:42:08.549Z,8.38
2019-06-26T05:44:37.349Z,7.70
2019-06-26T05:47:07.147Z,7.57
2019-06-26T05:49:33.508Z,7.70
2019-06-26T05:52:02.259Z,7.87
2019-06-26T05:54:30.443Z,7.70
2019-06-26T05:56:58.491Z,7.00
2019-06-26T05:59:26.593Z,7.30
2019-06-26T06:01:54.613Z,6.68
2019-06-26T06:04:22.644Z,6.65
2019-06-26T06:06:50.687Z,7.10
2019-06-26T06:09:19.594Z,7.35
2019-06-26T06:11:48.008Z,6.25
2019-06-26T06:14:16.018Z,6.85
2019-06-26T06:16:47.841Z,6.93
2019-06-26T06:19:12.859Z,6.70
2019-06-26T06:21:40.965Z,6.28
2019-06-26T06:24:09.522Z,6.75
2019-06-26T06:26:38.316Z,6.82
2019-06-26T06:29:06.257Z,6.25
2019-06-26T06:31:34.256Z,7.10
2019-06-26T06:34:03.204Z,6.20
2019-06-26T06:36:31.124Z,6.57
2019-06-26T06:38:59.833Z,6.22
2019-06-26T06:41:27.860Z,5.70
2019-06-26T06:43:57.598Z,6.40
2019-06-26T06:46:25.642Z,5.95
2019-06-26T06:48:53.703Z,5.87
2019-06-26T06:51:21.852Z,5.90
2019-06-26T06:53:49.852Z,6.30
2019-06-26T06:56:18.799Z,6.30
2019-06-26T06:58:47.652Z,5.95
2019-06-26T07:01:15.713Z,5.97
2019-06-26T07:03:43.733Z,5.80
2019-06-26T07:06:11.864Z,5.70
2019-06-26T07:08:39.892Z,5.57
2019-06-26T07:11:09.475Z,5.72
2019-06-26T07:13:37.497Z,5.53
2019-06-26T07:16:06.297Z,5.53
2019-06-26T07:18:34.326Z,5.55
2019-06-26T07:21:02.545Z,5.60
2019-06-26T07:23:30.555Z,5.13
2019-06-26T07:25:58.683Z,5.65
2019-06-26T07:28:26.747Z,5.25
2019-06-26T07:30:55.655Z,5.57
2019-06-26T07:33:23.719Z,5.55
2019-06-26T07:35:52.606Z,5.40
2019-06-26T07:38:21.481Z,5.57
2019-06-26T07:40:51.330Z,5.50
2019-06-26T07:43:19.454Z,5.57
2019-06-26T07:45:47.542Z,5.32
2019-06-26T07:48:15.636Z,5.62
2019-06-26T07:50:43.672Z,5.62
2019-06-26T07:53:12.689Z,5.72
2019-06-26T07:55:40.786Z,5.63
2019-06-26T07:58:08.797Z,5.75
2019-06-26T08:00:36.910Z,6.00
2019-06-26T08:03:05.441Z,5.20
2019-06-26T08:05:33.536Z,5.50
2019-06-26T08:08:02.502Z,5.30
2019-06-26T08:10:31.317Z,5.47
2019-06-26T08:12:59.380Z,5.35
2019-06-26T08:15:28.277Z,5.20
2019-06-26T08:18:00.904Z,5.78
2019-06-26T08:20:25.216Z,5.37
2019-06-26T08:22:53.238Z,5.50
2019-06-26T08:25:21.278Z,5.75
2019-06-26T08:27:50.160Z,6.15
2019-06-26T08:30:18.292Z,5.80
2019-06-26T08:32:47.052Z,5.78
2019-06-26T08:35:15.067Z,5.20
2019-06-26T08:37:43.174Z,5.43
2019-06-26T08:40:11.213Z,5.32
2019-06-26T08:42:39.351Z,5.30
2019-06-26T08:45:08.473Z,5.50
2019-06-26T08:47:36.476Z,6.00
2019-06-26T08:50:05.364Z,5.60
2019-06-26T08:52:33.428Z,5.65
2019-06-26T08:55:02.222Z,5.57
2019-06-26T08:57:30.300Z,5.60
2019-06-26T08:59:58.350Z,5.30
2019-06-26T09:02:27.158Z,5.10
2019-06-26T09:04:55.233Z,5.43
2019-06-26T09:07:23.293Z,5.17
2019-06-26T09:09:52.121Z,5.20
2019-06-26T09:12:20.208Z,5.37
2019-06-26T09:14:48.221Z,5.30
2019-06-26T09:17:17.013Z,5.22
2019-06-26T09:19:45.182Z,4.80
2019-06-26T09:22:14.069Z,5.25
2019-06-26T09:24:42.156Z,5.53
2019-06-26T09:27:10.206Z,5.05
2019-06-26T09:29:39.007Z,5.05
2019-06-26T09:32:07.180Z,5.60
2019-06-26T09:34:36.075Z,5.30
2019-06-26T09:37:04.901Z,5.72
2019-06-26T09:39:33.752Z,5.27
2019-06-26T09:42:01.990Z,5.20
2019-06-26T09:44:30.829Z,5.18
2019-06-26T09:46:58.879Z,5.60
2019-06-26T09:49:26.918Z,5.23
2019-06-26T09:51:55.012Z,5.30
2019-06-26T09:54:23.828Z,5.50
2019-06-26T09:56:51.835Z,5.90
2019-06-26T09:59:19.915Z,5.68
2019-06-26T10:01:47.997Z,6.18
2019-06-26T10:04:16.815Z,6.18
2019-06-26T10:06:45.597Z,6.00
2019-06-26T10:09:13.677Z,5.80
2019-06-26T10:11:41.712Z,5.35
2019-06-26T10:14:09.920Z,5.10
2019-06-26T10:16:38.688Z,5.80
2019-06-26T10:19:10.635Z,5.95
2019-06-26T10:21:35.569Z,5.50
2019-06-26T10:24:03.734Z,5.40
2019-06-26T10:26:32.667Z,4.87
2019-06-26T10:29:00.626Z,5.40
2019-06-26T10:31:28.741Z,4.70
2019-06-26T10:33:56.829Z,4.50
2019-06-26T10:36:25.569Z,4.60
2019-06-26T10:38:54.441Z,4.40
2019-06-26T10:41:22.569Z,4.30
2019-06-26T10:43:51.368Z,4.72
2019-06-26T10:46:19.432Z,4.85
2019-06-26T10:48:48.833Z,5.30
2019-06-26T10:51:17.660Z,4.83
2019-06-26T10:53:45.788Z,4.93
2019-06-26T10:56:14.601Z,4.85
2019-06-26T10:58:43.437Z,5.00
2019-06-26T11:01:11.437Z,4.78
2019-06-26T11:03:39.581Z,5.03
2019-06-26T11:06:07.612Z,5.32
2019-06-26T11:08:35.613Z,4.70
2019-06-26T11:11:03.726Z,4.82
2019-06-26T11:13:31.758Z,4.70
2019-06-26T11:15:59.804Z,5.03
2019-06-26T11:18:27.809Z,5.03
2019-06-26T11:20:56.604Z,4.68
2019-06-26T11:23:24.688Z,4.90
2019-06-26T11:25:53.565Z,4.73
2019-06-26T11:28:22.464Z,4.82
2019-06-26T11:30:51.471Z,4.40
2019-06-26T11:33:19.464Z,4.40
2019-06-26T11:35:47.592Z,4.55
2019-06-26T11:38:16.555Z,4.15
2019-06-26T11:40:44.573Z,4.15
2019-06-26T11:43:13.378Z,4.30
2019-06-26T11:45:41.429Z,4.50
2019-06-26T11:48:09.584Z,4.47
2019-06-26T11:50:38.409Z,4.40
2019-06-26T11:53:06.450Z,4.00
2019-06-26T11:55:35.346Z,4.22
2019-06-26T11:58:04.117Z,3.93
2019-06-26T12:00:32.930Z,3.62
2019-06-26T12:03:01.812Z,3.67
2019-06-26T12:05:29.850Z,4.10
2019-06-26T12:07:58.006Z,4.22
2019-06-26T12:10:26.953Z,4.05
2019-06-26T12:12:55.897Z,4.37
2019-06-26T12:15:24.709Z,4.00
2019-06-26T12:17:53.500Z,4.20
2019-06-26T12:20:21.563Z,3.80
2019-06-26T12:22:50.370Z,4.03
2019-06-26T12:25:19.244Z,4.13
2019-06-26T12:27:48.037Z,3.62
2019-06-26T12:30:16.073Z,3.70
2019-06-26T12:33:01.128Z,3.63
2019-06-26T12:35:12.150Z,3.78
2019-06-26T12:37:40.252Z,3.80
2019-06-26T12:40:08.320Z,3.60
2019-06-26T12:42:37.173Z,3.50
2019-06-26T12:45:05.982Z,4.10
2019-06-26T12:47:34.034Z,4.12
2019-06-26T12:50:02.541Z,4.23
2019-06-26T12:52:30.310Z,4.12
2019-06-26T12:54:58.444Z,4.30
2019-06-26T12:57:27.348Z,3.85
2019-06-26T12:59:57.653Z,4.10
2019-06-26T13:02:24.300Z,3.70
2019-06-26T13:04:52.351Z,4.05
2019-06-26T13:07:21.568Z,3.95
2019-06-26T13:09:49.732Z,4.20
2019-06-26T13:12:17.904Z,4.10
2019-06-26T13:14:45.976Z,4.03
2019-06-26T13:17:14.089Z,4.37
2019-06-26T13:19:42.194Z,3.92
2019-06-26T13:22:10.179Z,3.90
2019-06-26T13:24:39.062Z,3.70
2019-06-26T13:27:07.197Z,3.65
2019-06-26T13:29:35.237Z,4.22
2019-06-26T13:32:03.302Z,3.97
2019-06-26T13:34:31.390Z,3.62
2019-06-26T13:37:00.162Z,4.00
2019-06-26T13:39:28.274Z,4.20
2019-06-26T13:41:56.329Z,3.90
2019-06-26T13:44:24.419Z,4.07
2019-06-26T13:46:52.575Z,4.10
2019-06-26T13:49:20.613Z,3.97
2019-06-26T13:51:48.699Z,3.78
2019-06-26T13:54:16.775Z,4.28
2019-06-26T13:56:44.829Z,4.07
2019-06-26T13:59:12.937Z,4.05
2019-06-26T14:01:40.975Z,4.20
2019-06-26T14:04:09.043Z,4.50
2019-06-26T14:06:37.104Z,4.68
2019-06-26T14:09:05.157Z,4.22
2019-06-26T14:11:34.094Z,4.22
2019-06-26T14:14:04.272Z,4.30
2019-06-26T14:16:33.436Z,4.20
2019-06-26T14:19:05.580Z,4.28
2019-06-26T14:21:34.413Z,4.18
2019-06-26T14:24:03.361Z,4.35
2019-06-26T14:26:31.402Z,4.03
2019-06-26T14:28:59.442Z,4.05
2019-06-26T14:31:27.543Z,4.32
2019-06-26T14:33:55.647Z,4.57
2019-06-26T14:36:23.718Z,4.40
2019-06-26T14:38:51.742Z,4.00
2019-06-26T14:41:19.758Z,4.10
2019-06-26T14:43:47.827Z,4.00
2019-06-26T14:46:15.992Z,4.20
2019-06-26T14:48:44.134Z,4.28
2019-06-26T14:51:12.207Z,4.43
2019-06-26T14:53:40.319Z,4.40
2019-06-26T14:56:08.366Z,4.20
2019-06-26T14:58:37.238Z,4.27
2019-06-26T15:01:05.598Z,4.30
2019-06-26T15:03:34.451Z,4.37
2019-06-26T15:06:15.762Z,4.30
2019-06-26T15:08:30.690Z,4.15
2019-06-26T15:10:58.719Z,4.60
2019-06-26T15:13:27.634Z,4.40
2019-06-26T15:15:55.802Z,4.30
2019-06-26T15:18:23.895Z,4.12
2019-06-26T15:20:51.949Z,4.80
2019-06-26T15:23:20.001Z,4.40
2019-06-26T15:25:48.826Z,4.40
2019-06-26T15:28:16.887Z,4.65
2019-06-26T15:30:44.959Z,4.40
2019-06-26T15:33:13.076Z,4.57
2019-06-26T15:35:42.015Z,4.32
2019-06-26T15:38:10.016Z,4.40
2019-06-26T15:40:38.127Z,4.50
2019-06-26T15:43:06.203Z,4.53
2019-06-26T15:45:34.283Z,4.53
2019-06-26T15:48:02.323Z,4.47
2019-06-26T15:50:31.125Z,4.75
2019-06-26T15:52:59.248Z,5.10
2019-06-26T15:55:27.200Z,4.53
2019-06-26T15:57:55.241Z,4.82
2019-06-26T16:00:23.405Z,4.78
2019-06-26T16:02:51.401Z,4.77
2019-06-26T16:05:19.443Z,4.90
2019-06-26T16:07:47.489Z,4.60
2019-06-26T16:10:16.344Z,4.57
2019-06-26T16:12:44.382Z,4.53
2019-06-26T16:15:13.256Z,4.83
2019-06-26T16:17:47.877Z,4.43
2019-06-26T16:20:16.007Z,5.00
2019-06-26T16:22:44.001Z,4.97
2019-06-26T16:25:12.818Z,4.85
2019-06-26T16:27:40.910Z,4.53
2019-06-26T16:30:08.948Z,4.47
2019-06-26T16:32:37.025Z,4.40
2019-06-26T16:35:05.123Z,4.85
2019-06-26T16:37:33.165Z,5.05
2019-06-26T16:40:01.244Z,4.70
2019-06-26T16:42:29.277Z,4.65
2019-06-26T16:44:57.386Z,4.82
2019-06-26T16:47:26.269Z,5.40
2019-06-26T16:49:54.384Z,5.00
2019-06-26T16:52:22.529Z,5.30
2019-06-26T16:54:50.565Z,4.87
2019-06-26T16:57:19.516Z,4.60
2019-06-26T16:59:47.650Z,5.07
2019-06-26T17:02:15.721Z,4.75
2019-06-26T17:04:44.606Z,4.90
2019-06-26T17:07:12.672Z,5.00
2019-06-26T17:09:44.244Z,5.05
2019-06-26T17:12:08.913Z,4.95
2019-06-26T17:14:36.985Z,5.03
2019-06-26T17:17:05.061Z,5.10
2019-06-26T17:19:33.150Z,4.85
2019-06-26T17:22:01.271Z,5.03
2019-06-26T17:24:29.385Z,5.00
2019-06-26T17:26:59.465Z,4.90
2019-06-26T17:29:26.336Z,4.82
2019-06-26T17:31:54.378Z,5.20
2019-06-26T17:34:22.430Z,4.90
2019-06-26T17:36:50.518Z,5.25
2019-06-26T17:39:18.651Z,4.62
2019-06-26T17:41:46.685Z,4.85
2019-06-26T17:44:14.776Z,4.72
2019-06-26T17:46:42.878Z,5.32
2019-06-26T17:49:10.985Z,5.43
2019-06-26T17:51:39.991Z,5.28
2019-06-26T17:54:08.071Z,4.87
2019-06-26T17:56:36.172Z,4.87
2019-06-26T17:59:04.259Z,4.65
2019-06-26T18:01:32.266Z,4.80
2019-06-26T18:04:01.076Z,4.78
2019-06-26T18:06:29.150Z,5.18
2019-06-26T18:08:57.219Z,4.90
2019-06-26T18:11:25.281Z,4.82
2019-06-26T18:13:53.326Z,4.37
2019-06-26T18:16:22.138Z,4.93
2019-06-26T18:18:50.234Z,4.53
2019-06-26T18:21:18.377Z,5.28
2019-06-26T18:23:46.483Z,5.60
2019-06-26T18:26:14.555Z,4.85
2019-06-26T18:28:42.814Z,4.85
2019-06-26T18:31:10.849Z,4.85
2019-06-26T18:33:39.682Z,4.62
2019-06-26T18:36:07.712Z,4.60
2019-06-26T18:38:35.818Z,4.43
2019-06-26T18:41:03.856Z,4.93
2019-06-26T18:43:31.973Z,5.55
2019-06-26T18:46:00.100Z,4.62
2019-06-26T18:48:28.997Z,4.78
2019-06-26T18:50:57.110Z,5.28
2019-06-26T18:53:25.453Z,5.37
2019-06-26T18:55:53.536Z,5.40
2019-06-26T18:58:21.588Z,5.40
2019-06-26T19:00:49.617Z,5.47
2019-06-26T19:03:18.265Z,5.55
2019-06-26T19:05:46.398Z,5.13
2019-06-26T19:08:14.501Z,4.87
2019-06-26T19:10:43.398Z,5.20
2019-06-26T19:13:11.455Z,5.50
2019-06-26T19:15:39.477Z,5.50
2019-06-26T19:18:07.584Z,5.28
2019-06-26T19:20:35.715Z,5.85
2019-06-26T19:23:03.884Z,5.80
2019-06-26T19:25:31.953Z,5.97
2019-06-26T19:28:00.102Z,6.07
2019-06-26T19:30:28.381Z,6.57
2019-06-26T19:32:56.429Z,6.10
2019-06-26T19:35:24.516Z,5.90
2019-06-26T19:37:52.552Z,6.57
2019-06-26T19:40:23.936Z,6.07
2019-06-26T19:42:49.540Z,6.30
2019-06-26T19:45:17.578Z,6.55
2019-06-26T19:47:46.489Z,6.55
2019-06-26T19:50:14.696Z,6.87
2019-06-26T19:52:43.050Z,7.37
2019-06-26T19:55:11.081Z,7.68
2019-06-26T19:57:39.896Z,7.65
2019-06-26T20:00:08.919Z,7.82
2019-06-26T20:02:36.968Z,7.75
2019-06-26T20:05:05.047Z,8.13
2019-06-26T20:07:33.190Z,8.02
2019-06-26T20:10:02.081Z,7.90
2019-06-26T20:12:30.099Z,7.50
2019-06-26T20:14:58.151Z,7.43
2019-06-26T20:17:26.158Z,7.68
2019-06-26T20:19:54.257Z,7.78
2019-06-26T20:22:22.426Z,7.80
2019-06-26T20:24:50.501Z,7.65
2019-06-26T20:27:18.541Z,7.78
2019-06-26T20:29:46.673Z,7.87
2019-06-26T20:32:14.750Z,7.60
2019-06-26T20:34:42.756Z,7.30
2019-06-26T20:37:10.832Z,7.80
2019-06-26T20:39:38.932Z,8.15
2019-06-26T20:42:06.989Z,7.97
2019-06-26T20:44:35.177Z,7.90
2019-06-26T20:47:03.239Z,7.70
2019-06-26T20:49:31.277Z,8.20
2019-06-26T20:51:59.409Z,8.10
2019-06-26T20:54:27.499Z,8.40
2019-06-26T20:56:55.620Z,8.25
2019-06-26T20:59:23.690Z,8.13
2019-06-26T21:01:51.827Z,8.68
2019-06-26T21:04:19.892Z,8.17
2019-06-26T21:06:47.967Z,8.35
2019-06-26T21:09:15.977Z,8.30
2019-06-26T21:11:44.112Z,8.48
2019-06-26T21:14:12.172Z,9.38
2019-06-26T21:16:40.205Z,8.90
2019-06-26T21:19:08.297Z,8.23
2019-06-26T21:21:36.433Z,8.48
2019-06-26T21:24:04.629Z,8.07
2019-06-26T21:26:32.540Z,7.87
2019-06-26T21:29:00.959Z,7.47
2019-06-26T21:31:29.443Z,7.60
2019-06-26T21:33:57.538Z,7.62
2019-06-26T21:36:26.305Z,7.93
2019-06-26T21:38:55.412Z,7.40
2019-06-26T21:41:23.453Z,7.97
2019-06-26T21:43:52.221Z,7.87
2019-06-26T21:46:20.353Z,7.85
2019-06-26T21:48:48.415Z,7.87
2019-06-26T21:51:16.457Z,7.37
2019-06-26T21:53:45.748Z,8.00
2019-06-26T21:56:13.825Z,7.53
2019-06-26T21:58:41.891Z,7.43
2019-06-26T22:01:10.859Z,7.80
2019-06-26T22:03:38.867Z,7.60
2019-06-26T22:06:06.931Z,8.23
2019-06-26T22:08:35.129Z,7.82
2019-06-26T22:11:03.185Z,8.40
2019-06-26T22:13:31.966Z,7.80
2019-06-26T22:16:00.043Z,8.20
2019-06-26T22:18:28.168Z,7.70
2019-06-26T22:20:56.265Z,7.87
2019-06-26T22:23:24.350Z,8.23
2019-06-26T22:25:52.430Z,7.87
2019-06-26T22:28:20.464Z,8.05
2019-06-26T22:30:49.387Z,7.85
2019-06-26T22:33:17.437Z,8.48
2019-06-26T22:35:45.477Z,8.30
2019-06-26T22:38:13.504Z,8.77
2019-06-26T22:40:41.560Z,8.05
2019-06-26T22:43:09.634Z,8.20
2019-06-26T22:45:37.793Z,8.40
2019-06-26T22:48:05.830Z,8.43
2019-06-26T22:50:33.869Z,7.95
2019-06-26T22:53:02.105Z,8.88
2019-06-26T22:55:30.194Z,8.57
2019-06-26T22:57:58.252Z,8.30
2019-06-26T23:00:26.291Z,8.50
2019-06-26T23:02:54.390Z,8.15
2019-06-26T23:05:22.465Z,8.60
2019-06-26T23:07:50.547Z,8.55
2019-06-26T23:10:18.599Z,8.82
2019-06-26T23:12:46.727Z,8.88
2019-06-26T23:15:14.718Z,9.15
2019-06-26T23:17:43.523Z,8.55
2019-06-26T23:20:11.611Z,7.90
2019-06-26T23:22:39.687Z,8.07
2019-06-26T23:25:07.749Z,8.05
2019-06-26T23:27:36.525Z,8.50
2019-06-26T23:30:04.622Z,8.45
2019-06-26T23:32:32.673Z,8.00
2019-06-26T23:35:00.711Z,8.30
2019-06-26T23:37:28.761Z,8.13
2019-06-26T23:39:56.810Z,8.02
2019-06-26T23:42:24.961Z,8.35
2019-06-26T23:44:53.031Z,8.65
2019-06-26T23:47:21.093Z,8.35
2019-06-26T23:49:49.865Z,8.83
2019-06-26T23:52:18.777Z,8.60
2019-06-26T23:54:47.582Z,8.98
2019-06-26T23:57:15.626Z,8.90
2019-06-26T23:59:43.666Z,8.75
